Terminal Aerodrome Forecast
Issued by NWS

Home | Current Version | Previous Version | Text Only | Print | Product List | Glossary On
Versions: 1 2 3 4 5 6 7 8 9 10 11 12 13 14 15 16
982
FTUS46 KLOX 252333
TAFBUR
TAF
KBUR 252333Z 2600/2624 34012G20KT P6SM SKC
     FM260300 32010G18KT P6SM SKC
     FM260500 31007KT P6SM SKC
     FM260800 VRB03KT P6SM SKC WS010/02025KT
     FM261600 04010KT P6SM SKC
     FM262000 18010G17KT P6SM BKN250=

USA.gov is the U.S. government's official web portal to all federal, state and local government web resources and services.